Flo, Texas
Current Conditions -  °F | °C
As of 3:15 AM on Thursday 27 Nov 2014 (Local Time) from KLXY Reporting Station
Clear Clear  
Wind Chill: 41°   Ceiling: Unl
Heat Index: 45°   Visibility: 10mi
Dew Point: 32°   Wind: 8mph
Humidity: 59%   Direction: 10°N
Pressure: 30.41"   Gusts: NA
Location:  31.4723°N, 96.0615°W
Report Text: KLXY 270915Z AUTO 01007KT 10SM CLR 07/00 A3041 RMK AO2 T00731002
Loading
Personal Weather Stations






























Interactive Weather Map New forecast layout! Learn more

10-Day Weather Forecast

Advertisements
Track Severe Weather on mobile